Time;durP1;ratioP1;P1;durP2;ratioP2;P2;SDS_P1;SDS_P2;PMS_P1;PMS_P2;Temp;Humidity;BMP_temperature;BMP_pressure;BME280_temperature;BME280_humidity;BME280_pressure;Samples;Min_cycle;Max_cycle;Signal;HPM_P1;HPM_P2
2023/12/05 00:02:13;;;;;;;0.50;0.30;;;20.50;44.50;21.20;99870.00;;;;4998092;28;20510;-52
2023/12/05 00:04:39;;;;;;;0.60;0.38;;;20.40;44.40;21.20;99863.00;;;;5015873;28;20497;-54
2023/12/05 00:07:05;;;;;;;0.95;0.55;;;20.50;44.50;21.20;99882.00;;;;4998049;28;20092;-50
2023/12/05 00:09:31;;;;;;;2.10;0.40;;;20.50;44.40;21.20;99884.00;;;;5016301;28;20107;-52
2023/12/05 00:11:57;;;;;;;0.73;0.30;;;20.50;44.40;21.20;99883.00;;;;5015651;28;20720;-48
2023/12/05 00:14:23;;;;;;;2.05;0.45;;;20.50;44.40;21.20;99887.00;;;;5014330;28;20117;-50
2023/12/05 00:16:49;;;;;;;0.50;0.20;;;20.50;44.40;21.20;99891.00;;;;5016244;28;21634;-52
2023/12/05 00:19:15;;;;;;;5.75;0.35;;;20.40;44.40;21.20;99885.00;;;;5017586;28;20046;-49
2023/12/05 00:21:41;;;;;;;0.57;0.20;;;20.40;44.40;21.20;99898.00;;;;5013507;28;20167;-49
2023/12/05 00:24:07;;;;;;;2.38;0.28;;;20.40;44.40;21.20;99886.00;;;;5014480;28;20648;-47
2023/12/05 00:26:33;;;;;;;0.43;0.43;;;20.40;44.40;21.20;99888.00;;;;5015725;28;20052;-48
2023/12/05 00:28:58;;;;;;;2.45;0.30;;;20.40;44.40;21.20;99894.00;;;;5013729;28;20057;-51
2023/12/05 00:31:24;;;;;;;1.98;0.30;;;20.40;44.40;21.20;99879.00;;;;5014999;28;20095;-47
2023/12/05 00:33:50;;;;;;;0.40;0.40;;;20.40;44.40;21.20;99879.00;;;;5015862;28;20041;-50
2023/12/05 00:36:17;;;;;;;0.52;0.20;;;20.40;44.40;21.20;99865.00;;;;5015243;28;20061;-51
2023/12/05 00:38:43;;;;;;;0.25;0.17;;;20.50;44.40;21.20;99874.00;;;;5015764;28;20033;-51
2023/12/05 00:41:09;;;;;;;2.58;0.28;;;20.40;44.40;21.20;99878.00;;;;5014327;28;20039;-48
2023/12/05 00:43:36;;;;;;;0.30;0.20;;;20.40;44.40;21.20;99875.00;;;;5015467;28;20718;-48
2023/12/05 00:46:02;;;;;;;0.20;0.20;;;20.40;44.40;21.20;99872.00;;;;5014631;28;20041;-50
2023/12/05 00:48:28;;;;;;;0.80;0.20;;;20.40;44.40;21.10;99873.00;;;;5013951;28;20037;-50
2023/12/05 00:50:54;;;;;;;0.30;0.20;;;20.40;44.30;21.10;99890.00;;;;5021253;28;20033;-53
2023/12/05 00:53:20;;;;;;;1.73;0.40;;;20.30;44.30;21.10;99894.00;;;;5013898;28;20107;-52
2023/12/05 00:55:46;;;;;;;0.13;0.10;;;20.40;44.40;21.10;99893.00;;;;4989021;28;20037;-55
2023/12/05 00:58:13;;;;;;;0.10;0.10;;;20.30;44.30;21.10;99891.00;;;;4996563;28;20055;-56
2023/12/05 01:00:39;;;;;;;0.45;0.30;;;20.40;44.40;21.10;99884.00;;;;5014111;28;20041;-52
2023/12/05 01:03:05;;;;;;;0.20;0.10;;;20.30;44.30;21.00;99893.00;;;;5015692;28;20034;-55
2023/12/05 01:05:33;;;;;;;0.80;0.20;;;20.30;44.40;21.00;99899.00;;;;5013307;28;20752;-57
2023/12/05 01:07:59;;;;;;;1.27;0.30;;;20.30;44.40;21.00;99895.00;;;;5013690;28;20041;-53
2023/12/05 01:10:25;;;;;;;1.27;0.32;;;20.30;44.40;21.00;99889.00;;;;5015600;28;20084;-57
2023/12/05 01:12:51;;;;;;;0.10;0.10;;;20.30;44.40;21.00;99882.00;;;;5004740;28;20038;-55
2023/12/05 01:15:17;;;;;;;0.20;0.10;;;20.30;44.40;21.00;99896.00;;;;5013938;28;20042;-54
2023/12/05 01:17:43;;;;;;;0.25;0.10;;;20.30;44.40;21.00;99900.00;;;;4998079;28;20034;-55
2023/12/05 01:20:12;;;;;;;0.17;0.15;;;20.30;44.40;21.00;99910.00;;;;5013586;28;20052;-53
2023/12/05 01:22:38;;;;;;;0.10;0.03;;;20.30;44.40;21.00;99903.00;;;;5014072;28;20045;-57
2023/12/05 01:25:08;;;;;;;0.32;0.10;;;20.30;44.40;21.00;99907.00;;;;5013263;28;20047;-54
2023/12/05 01:27:34;;;;;;;1.95;0.20;;;20.20;44.40;21.00;99910.00;;;;5013999;28;20650;-53
2023/12/05 01:30:00;;;;;;;0.10;0.10;;;20.20;44.40;21.00;99920.00;;;;5015055;28;20034;-51
2023/12/05 01:32:26;;;;;;;0.20;0.10;;;20.20;44.40;21.00;99919.00;;;;4989124;28;20086;-49
2023/12/05 01:34:52;;;;;;;0.10;0.00;;;20.20;44.40;21.00;99915.00;;;;5004846;28;20861;-49
2023/12/05 01:37:18;;;;;;;0.10;0.10;;;20.20;44.40;20.90;99915.00;;;;5014435;28;20046;-49
2023/12/05 01:39:44;;;;;;;1.48;0.10;;;20.20;44.40;20.90;99924.00;;;;5013250;28;20387;-52
2023/12/05 01:42:10;;;;;;;1.23;0.10;;;20.20;44.40;20.90;99924.00;;;;5014168;28;20057;-51
2023/12/05 01:44:36;;;;;;;0.10;0.10;;;20.20;44.40;20.90;99931.00;;;;4996524;28;20029;-47
2023/12/05 01:47:03;;;;;;;0.43;0.20;;;20.20;44.40;20.90;99931.00;;;;5013934;28;20041;-52
2023/12/05 01:49:33;;;;;;;0.10;0.10;;;20.20;44.40;20.90;99938.00;;;;5037856;28;20073;-49
2023/12/05 01:52:01;;;;;;;1.90;0.10;;;20.20;44.50;20.90;99925.00;;;;5014333;28;20037;-48
2023/12/05 01:54:31;;;;;;;0.52;0.00;;;20.20;44.50;20.90;99931.00;;;;5013932;28;20061;-50
2023/12/05 01:56:59;;;;;;;0.80;0.30;;;20.10;44.40;20.90;99936.00;;;;5017124;28;20084;-49
2023/12/05 01:59:25;;;;;;;0.20;0.00;;;20.10;44.40;20.90;99940.00;;;;5016752;28;20060;-50
2023/12/05 02:01:52;;;;;;;0.43;0.10;;;20.10;44.40;20.90;99947.00;;;;5016456;28;20041;-48
2023/12/05 02:04:19;;;;;;;0.22;0.10;;;20.10;44.50;20.90;99941.00;;;;5025306;28;20045;-53
2023/12/05 02:06:49;;;;;;;0.13;0.00;;;20.10;44.50;20.90;99936.00;;;;5016267;28;20053;-54
2023/12/05 02:09:16;;;;;;;0.30;0.10;;;20.10;44.50;20.90;99941.00;;;;4992127;28;20116;-48
2023/12/05 02:11:43;;;;;;;0.10;0.10;;;20.10;44.50;20.90;99948.00;;;;5000356;28;20041;-48
2023/12/05 02:14:10;;;;;;;0.10;0.10;;;20.10;44.50;20.80;99934.00;;;;5017215;28;20161;-49
2023/12/05 02:17:17;;;;;;;0.90;0.10;;;20.10;44.50;20.90;99950.00;;;;5016158;28;20040;-50
2023/12/05 02:19:46;;;;;;;0.80;0.10;;;20.10;44.40;20.80;99945.00;;;;5015429;28;20124;-51
2023/12/05 02:22:28;;;;;;;1.25;0.50;;;20.10;44.40;20.80;99943.00;;;;5017154;28;20041;-49
2023/12/05 02:25:41;;;;;;;1.02;0.05;;;20.10;44.60;20.80;99958.00;;;;4998057;28;20049;-50
2023/12/05 02:28:09;;;;;;;1.65;0.22;;;20.10;44.60;20.80;99951.00;;;;5015538;28;20132;-50
2023/12/05 02:30:35;;;;;;;0.20;0.20;;;20.10;44.50;20.80;99955.00;;;;4981959;28;20430;-49
2023/12/05 02:33:19;;;;;;;0.38;0.15;;;20.00;44.50;20.80;99957.00;;;;5015499;28;20745;-51
2023/12/05 02:35:48;;;;;;;0.55;0.10;;;20.00;44.50;20.80;99955.00;;;;5015768;28;20049;-49
2023/12/05 02:38:36;;;;;;;0.20;0.10;;;20.00;44.60;20.80;99971.00;;;;4989828;28;20685;-50
2023/12/05 02:41:11;;;;;;;0.35;0.10;;;20.00;44.60;20.80;99968.00;;;;4999898;28;20505;-49
2023/12/05 02:43:46;;;;;;;0.75;0.10;;;20.00;44.60;20.80;99978.00;;;;5014493;28;20050;-49
2023/12/05 02:46:16;;;;;;;0.70;0.10;;;20.00;44.60;20.80;99996.00;;;;5014293;28;20041;-50
2023/12/05 02:48:43;;;;;;;0.20;0.10;;;20.00;44.60;20.80;99978.00;;;;4981334;28;20529;-50
2023/12/05 02:51:10;;;;;;;0.10;0.10;;;20.00;44.60;20.80;99981.00;;;;5005439;28;20141;-49
2023/12/05 02:53:36;;;;;;;0.10;0.00;;;20.00;44.60;20.80;99978.00;;;;4998752;28;20050;-47
2023/12/05 02:56:04;;;;;;;0.10;0.10;;;20.00;44.70;20.80;99985.00;;;;5015444;28;20139;-50
2023/12/05 02:58:30;;;;;;;0.50;0.10;;;20.00;44.70;20.80;99994.00;;;;5017332;28;20167;-53
2023/12/05 03:00:56;;;;;;;0.40;0.10;;;20.00;44.70;20.80;99986.00;;;;5019036;28;20114;-48
2023/12/05 03:03:22;;;;;;;0.85;0.10;;;20.00;44.70;20.80;99988.00;;;;5016937;28;20043;-48
2023/12/05 03:05:48;;;;;;;0.82;0.10;;;20.00;45.30;20.80;99999.00;;;;5031054;28;20146;-54
2023/12/05 03:08:14;;;;;;;0.20;0.05;;;20.00;44.70;20.70;99989.00;;;;5015202;28;20041;-51
2023/12/05 03:10:40;;;;;;;0.25;0.15;;;20.00;44.70;20.70;99986.00;;;;5015105;28;20119;-48
2023/12/05 03:13:06;;;;;;;0.73;0.38;;;20.00;44.70;20.80;99998.00;;;;5000463;28;20085;-48
2023/12/05 03:15:32;;;;;;;0.35;0.10;;;20.00;44.70;20.70;100006.00;;;;5014496;28;20538;-51
2023/12/05 03:17:58;;;;;;;0.32;0.10;;;20.00;44.70;20.70;99990.00;;;;5006842;28;20041;-47
2023/12/05 03:20:24;;;;;;;0.68;0.00;;;20.00;44.70;20.70;99990.00;;;;5016517;28;20384;-53
2023/12/05 03:22:50;;;;;;;0.45;0.00;;;20.00;44.70;20.70;100010.00;;;;5016210;28;20045;-52
2023/12/05 03:25:16;;;;;;;0.00;0.00;;;20.00;44.80;20.70;100003.00;;;;5017028;28;20374;-48
2023/12/05 03:27:42;;;;;;;0.10;0.00;;;19.90;44.70;20.70;100017.00;;;;5015973;28;20394;-49
2023/12/05 03:30:09;;;;;;;0.10;0.00;;;19.90;44.70;20.70;99998.00;;;;5016237;28;20072;-49
2023/12/05 03:32:35;;;;;;;0.20;0.05;;;19.90;44.70;20.70;99995.00;;;;5016162;28;20038;-50
2023/12/05 03:35:01;;;;;;;0.90;0.05;;;19.90;44.70;20.70;99998.00;;;;5016582;28;20536;-49
2023/12/05 03:37:27;;;;;;;0.10;0.10;;;19.90;44.70;20.70;99995.00;;;;5014807;28;20364;-51
2023/12/05 03:39:53;;;;;;;0.40;0.00;;;19.90;44.80;20.70;99993.00;;;;5015948;28;20045;-49
2023/12/05 03:42:19;;;;;;;0.75;0.00;;;19.90;44.80;20.70;99995.00;;;;5014953;28;22305;-50
2023/12/05 03:44:45;;;;;;;0.00;0.00;;;19.90;44.80;20.70;100003.00;;;;5016271;28;20030;-49
2023/12/05 03:47:11;;;;;;;0.13;0.00;;;19.90;44.80;20.70;100007.00;;;;4999177;28;20498;-50
2023/12/05 03:49:37;;;;;;;0.20;0.00;;;19.90;44.80;20.70;99998.00;;;;5015975;28;20121;-51
2023/12/05 03:52:04;;;;;;;0.10;0.00;;;19.90;44.80;20.60;99990.00;;;;4998757;28;20060;-49
2023/12/05 03:54:31;;;;;;;1.55;0.00;;;19.90;44.80;20.60;100010.00;;;;5015780;28;20045;-48
2023/12/05 03:56:57;;;;;;;0.03;0.00;;;19.90;44.80;20.60;100000.00;;;;5014591;28;20041;-48
2023/12/05 03:59:23;;;;;;;0.05;0.00;;;19.90;44.90;20.60;100015.00;;;;5014868;28;20059;-51
2023/12/05 04:01:49;;;;;;;2.65;1.23;;;19.90;44.90;20.60;100011.00;;;;5014418;28;20351;-50
2023/12/05 04:04:15;;;;;;;0.35;0.00;;;19.90;44.90;20.60;100004.00;;;;5017332;28;20038;-53
2023/12/05 04:06:41;;;;;;;0.00;0.00;;;19.90;44.90;20.60;100007.00;;;;4998915;28;20045;-49
2023/12/05 04:09:07;;;;;;;0.10;0.00;;;19.90;44.90;20.60;100017.00;;;;4998403;28;20056;-51
2023/12/05 04:11:34;;;;;;;0.35;0.00;;;19.90;45.00;20.60;100035.00;;;;5005710;28;20062;-57
2023/12/05 04:14:01;;;;;;;0.00;0.00;;;19.90;45.00;20.60;100034.00;;;;5014017;28;20081;-51
2023/12/05 04:16:27;;;;;;;0.00;0.00;;;19.80;44.90;20.60;100036.00;;;;5014063;28;20069;-56
2023/12/05 04:18:54;;;;;;;0.00;0.00;;;19.80;45.00;20.60;100044.00;;;;5013425;28;20364;-57
2023/12/05 04:21:20;;;;;;;0.20;0.00;;;19.80;45.00;20.60;100042.00;;;;5015300;28;20038;-52
2023/12/05 04:23:47;;;;;;;0.10;0.00;;;19.80;45.00;20.60;100054.00;;;;4998309;28;20039;-54
2023/12/05 04:26:18;;;;;;;0.52;0.00;;;19.80;45.00;20.60;100056.00;;;;5021199;28;20053;-54
2023/12/05 04:28:45;;;;;;;0.00;0.00;;;19.80;45.00;20.60;100064.00;;;;5015413;28;20561;-53
2023/12/05 04:31:13;;;;;;;0.10;0.00;;;19.80;45.10;20.60;100059.00;;;;5015821;28;20116;-54
2023/12/05 04:33:40;;;;;;;0.32;0.32;;;19.80;45.10;20.60;100063.00;;;;5014852;28;20823;-51
2023/12/05 04:36:07;;;;;;;0.00;0.00;;;19.80;45.20;20.60;100069.00;;;;5030092;28;20108;-52
2023/12/05 04:38:35;;;;;;;0.00;0.00;;;19.80;45.30;20.60;100077.00;;;;5013914;28;20045;-48
2023/12/05 04:41:01;;;;;;;0.47;0.00;;;19.80;45.30;20.60;100061.00;;;;5014450;28;20052;-49
2023/12/05 04:43:30;;;;;;;0.95;0.95;;;19.80;46.00;20.60;100075.00;;;;5013717;28;20107;-49
2023/12/05 04:45:56;;;;;;;0.25;0.00;;;19.80;45.40;20.60;100077.00;;;;5014412;28;20180;-50
2023/12/05 04:48:22;;;;;;;0.00;0.00;;;19.80;45.50;20.60;100080.00;;;;5015494;28;20530;-51
2023/12/05 04:51:07;;;;;;;0.00;0.00;;;19.80;45.50;20.60;100098.00;;;;5014738;28;20029;-48
2023/12/05 04:53:32;;;;;;;0.45;0.00;;;19.80;45.60;20.60;100093.00;;;;5014182;28;20050;-51
2023/12/05 04:55:58;;;;;;;0.00;0.00;;;19.80;45.60;20.60;100084.00;;;;5013845;28;20037;-49
2023/12/05 04:58:25;;;;;;;0.10;0.00;;;19.80;45.60;20.60;100088.00;;;;5013678;28;20175;-48
2023/12/05 05:00:51;;;;;;;0.00;0.00;;;19.80;45.60;20.60;100095.00;;;;5013309;28;20120;-53
2023/12/05 05:03:17;;;;;;;0.00;0.00;;;19.80;45.60;20.60;100092.00;;;;5012902;28;20137;-53
2023/12/05 05:05:43;;;;;;;0.00;0.00;;;19.80;45.60;20.50;100102.00;;;;5013773;28;20034;-48
2023/12/05 05:08:09;;;;;;;0.00;0.00;;;19.80;45.60;20.50;100101.00;;;;5015924;28;20072;-51
2023/12/05 05:10:35;;;;;;;0.30;0.00;;;19.80;45.60;20.60;100119.00;;;;5015722;28;20112;-49
2023/12/05 05:13:01;;;;;;;0.00;0.00;;;19.80;45.60;20.50;100115.00;;;;5015741;28;20069;-47
2023/12/05 05:15:27;;;;;;;0.10;0.00;;;19.80;45.60;20.50;100119.00;;;;5014648;28;20029;-47
2023/12/05 05:17:53;;;;;;;0.38;0.03;;;19.80;45.70;20.50;100117.00;;;;5013337;28;20045;-49
2023/12/05 05:20:20;;;;;;;0.00;0.00;;;19.70;45.60;20.50;100104.00;;;;5012931;28;20056;-51
2023/12/05 05:22:46;;;;;;;0.63;0.00;;;19.70;45.70;20.50;100125.00;;;;5013947;28;20041;-50
2023/12/05 05:25:12;;;;;;;0.00;0.00;;;19.70;45.60;20.50;100121.00;;;;5015710;28;20282;-48
2023/12/05 05:27:38;;;;;;;0.00;0.00;;;19.70;45.70;20.50;100133.00;;;;5012845;28;20037;-48
2023/12/05 05:30:05;;;;;;;0.10;0.00;;;19.70;45.60;20.50;100125.00;;;;5016180;28;20048;-49
2023/12/05 05:32:31;;;;;;;0.00;0.00;;;19.70;45.70;20.50;100136.00;;;;5017176;28;20037;-48
2023/12/05 05:34:57;;;;;;;0.10;0.00;;;19.80;45.70;20.50;100142.00;;;;5017580;28;20065;-49
2023/12/05 05:37:23;;;;;;;0.30;0.00;;;19.70;45.70;20.50;100145.00;;;;5016520;28;20069;-49
2023/12/05 05:39:49;;;;;;;0.00;0.00;;;19.70;45.70;20.50;100146.00;;;;5017079;28;20083;-49
2023/12/05 05:42:15;;;;;;;0.63;0.00;;;19.70;45.70;20.50;100146.00;;;;5017711;28;20524;-49
2023/12/05 05:44:41;;;;;;;1.80;0.80;;;19.70;45.70;20.50;100159.00;;;;5000880;28;20042;-49
2023/12/05 05:47:07;;;;;;;0.68;0.00;;;19.70;45.70;20.50;100158.00;;;;5008711;28;20052;-52
2023/12/05 05:49:34;;;;;;;0.30;0.00;;;19.70;45.70;20.50;100172.00;;;;4984653;28;20072;-52
2023/12/05 05:52:00;;;;;;;0.10;0.10;;;19.70;45.70;20.50;100168.00;;;;5017777;28;20034;-50
2023/12/05 05:54:26;;;;;;;0.88;0.00;;;19.70;45.80;20.50;100172.00;;;;5032116;28;20111;-55
2023/12/05 05:56:52;;;;;;;0.00;0.00;;;19.70;45.80;20.50;100178.00;;;;5017505;28;20045;-48
2023/12/05 05:59:18;;;;;;;0.13;0.00;;;19.70;45.80;20.50;100177.00;;;;4999971;28;20056;-49
2023/12/05 06:01:47;;;;;;;1.20;0.00;;;19.70;45.90;20.50;100180.00;;;;5017736;28;20130;-50
2023/12/05 06:04:14;;;;;;;0.00;0.00;;;19.70;45.90;20.50;100183.00;;;;5017889;28;20442;-50
2023/12/05 06:06:40;;;;;;;0.10;0.00;;;19.70;45.90;20.50;100186.00;;;;5016375;28;20049;-47
2023/12/05 06:09:06;;;;;;;0.40;0.00;;;19.70;45.90;20.50;100191.00;;;;5016895;28;20050;-49
2023/12/05 06:11:32;;;;;;;0.25;0.00;;;19.70;45.90;20.50;100201.00;;;;5018584;28;20034;-48
2023/12/05 06:13:58;;;;;;;0.00;0.00;;;19.70;46.00;20.50;100197.00;;;;5000756;28;20069;-47
2023/12/05 06:16:24;;;;;;;0.28;0.00;;;19.70;46.10;20.50;100198.00;;;;5016701;28;20042;-48
2023/12/05 06:18:50;;;;;;;0.00;0.00;;;19.70;46.10;20.50;100205.00;;;;5020706;28;20041;-47
2023/12/05 06:21:16;;;;;;;0.47;0.00;;;19.70;46.10;20.50;100210.00;;;;5016046;28;20049;-47
2023/12/05 06:23:43;;;;;;;0.10;0.00;;;19.70;46.10;20.50;100218.00;;;;5017163;28;20096;-47
2023/12/05 06:26:09;;;;;;;0.25;0.00;;;19.70;46.10;20.50;100218.00;;;;4999680;28;20061;-49
2023/12/05 06:28:34;;;;;;;0.10;0.00;;;19.70;46.10;20.50;100223.00;;;;5016927;28;20044;-50
2023/12/05 06:31:00;;;;;;;0.15;0.00;;;19.70;46.10;20.50;100233.00;;;;5016543;28;20037;-49
2023/12/05 06:33:26;;;;;;;0.13;0.00;;;19.70;46.00;20.50;100233.00;;;;5016618;28;20666;-47
2023/12/05 06:35:52;;;;;;;0.10;0.00;;;19.70;46.00;20.50;100237.00;;;;5016261;28;20073;-49
2023/12/05 06:38:18;;;;;;;0.40;0.00;;;19.70;46.00;20.50;100245.00;;;;5016398;28;20120;-48
2023/12/05 06:40:44;;;;;;;0.00;0.00;;;19.70;46.00;20.50;100243.00;;;;5015643;28;20479;-49
2023/12/05 06:43:10;;;;;;;0.00;0.00;;;19.70;46.00;20.50;100251.00;;;;5007989;28;20736;-48
2023/12/05 06:45:36;;;;;;;0.15;0.00;;;19.70;46.00;20.50;100256.00;;;;5016620;28;20045;-47
2023/12/05 06:48:02;;;;;;;0.10;0.00;;;19.70;46.00;20.50;100261.00;;;;5017208;28;20750;-48
2023/12/05 06:50:29;;;;;;;0.10;0.00;;;19.70;46.00;20.50;100263.00;;;;5015101;28;20040;-53
2023/12/05 06:52:59;;;;;;;0.20;0.10;;;19.70;46.00;20.50;100267.00;;;;5017915;28;20103;-56
2023/12/05 06:55:26;;;;;;;0.85;0.20;;;19.70;46.00;20.50;100273.00;;;;5017209;28;20045;-57
2023/12/05 06:57:52;;;;;;;0.80;0.00;;;19.70;45.90;20.50;100280.00;;;;5016838;28;20041;-55
2023/12/05 07:00:19;;;;;;;0.25;0.10;;;19.70;45.90;20.50;100271.00;;;;5017751;28;20091;-52
2023/12/05 07:02:45;;;;;;;0.00;0.00;;;19.70;46.00;20.50;100288.00;;;;5016622;28;20068;-53
2023/12/05 07:05:11;;;;;;;0.05;0.00;;;19.70;45.90;20.50;100287.00;;;;5017481;28;22273;-53
2023/12/05 07:07:37;;;;;;;0.10;0.00;;;19.70;45.90;20.40;100294.00;;;;5016106;28;20466;-53
2023/12/05 07:10:03;;;;;;;0.30;0.00;;;19.70;45.90;20.50;100301.00;;;;5016756;28;20050;-54
2023/12/05 07:12:29;;;;;;;0.55;0.10;;;19.70;45.90;20.50;100300.00;;;;5015222;28;20030;-50
2023/12/05 07:14:55;;;;;;;0.43;0.08;;;19.70;45.90;20.50;100306.00;;;;5017268;28;20845;-47
2023/12/05 07:17:21;;;;;;;1.45;0.00;;;19.70;46.00;20.50;100314.00;;;;5014735;28;20045;-47
2023/12/05 07:19:47;;;;;;;1.02;0.00;;;19.70;45.90;20.50;100318.00;;;;5032141;28;20048;-50
2023/12/05 07:22:13;;;;;;;0.15;0.15;;;19.70;45.90;20.40;100324.00;;;;5015573;28;20173;-49
2023/12/05 07:24:39;;;;;;;0.57;0.03;;;19.70;46.00;20.50;100333.00;;;;5015647;28;20072;-47
2023/12/05 07:27:04;;;;;;;0.50;0.10;;;19.70;45.90;20.50;100323.00;;;;5015073;28;20037;-49
2023/12/05 07:29:30;;;;;;;0.10;0.00;;;19.70;45.90;20.50;100333.00;;;;5015456;28;20057;-48
2023/12/05 07:31:56;;;;;;;1.20;0.10;;;19.70;45.90;20.40;100333.00;;;;5013973;28;20107;-50
2023/12/05 07:34:22;;;;;;;0.15;0.00;;;19.70;45.90;20.40;100335.00;;;;5015310;28;20132;-51
2023/12/05 07:36:48;;;;;;;0.30;0.10;;;19.70;46.40;20.40;100338.00;;;;5015890;28;20040;-46
2023/12/05 07:39:14;;;;;;;0.00;0.00;;;19.70;45.90;20.40;100344.00;;;;5017121;28;20137;-48
2023/12/05 07:41:41;;;;;;;0.28;0.00;;;19.70;45.90;20.40;100348.00;;;;5015707;28;20045;-48
2023/12/05 07:44:07;;;;;;;0.10;0.00;;;19.60;45.90;20.40;100354.00;;;;5016831;28;20057;-48
2023/12/05 07:46:34;;;;;;;0.35;0.10;;;19.60;45.80;20.40;100361.00;;;;5015565;28;20037;-48
2023/12/05 07:49:02;;;;;;;1.65;0.03;;;19.70;45.90;20.40;100361.00;;;;5015091;28;20132;-48
2023/12/05 07:51:28;;;;;;;0.40;0.10;;;19.60;45.80;20.40;100372.00;;;;5014550;28;20047;-47
2023/12/05 07:53:54;;;;;;;0.20;0.20;;;19.60;45.80;20.40;100370.00;;;;4998726;28;20092;-46
2023/12/05 07:56:20;;;;;;;1.83;0.00;;;19.60;45.80;20.40;100372.00;;;;4999083;28;20077;-51
2023/12/05 07:58:46;;;;;;;0.40;0.10;;;19.60;45.80;20.40;100378.00;;;;5016001;28;20038;-47
2023/12/05 08:01:12;;;;;;;0.17;0.08;;;19.60;45.80;20.40;100380.00;;;;5015041;28;20071;-49
2023/12/05 08:03:38;;;;;;;1.65;0.00;;;19.60;45.90;20.40;100386.00;;;;5014756;28;20144;-47
2023/12/05 08:06:05;;;;;;;1.75;0.00;;;19.60;45.80;20.40;100395.00;;;;5015017;28;20053;-47
2023/12/05 08:08:31;;;;;;;0.63;0.03;;;19.60;46.00;20.40;100400.00;;;;5015832;28;20064;-50
2023/12/05 08:10:58;;;;;;;0.93;0.50;;;19.60;45.80;20.40;100399.00;;;;5016210;28;20040;-53
2023/12/05 08:13:25;;;;;;;8.05;0.28;;;19.60;45.90;20.40;100398.00;;;;5005415;28;20389;-54
2023/12/05 08:15:52;;;;;;;0.98;0.17;;;19.60;45.90;20.40;100399.00;;;;5014155;28;20632;-52
2023/12/05 08:18:18;;;;;;;3.25;0.20;;;19.60;45.90;20.40;100412.00;;;;5014264;28;20041;-54
2023/12/05 08:20:44;;;;;;;4.45;0.32;;;19.60;45.90;20.40;100412.00;;;;5016099;28;20041;-54
2023/12/05 08:23:10;;;;;;;6.63;0.20;;;19.60;46.00;20.40;100409.00;;;;4999835;28;20051;-52
2023/12/05 08:25:36;;;;;;;1.95;0.30;;;19.60;46.00;20.40;100418.00;;;;5014240;28;20052;-54
2023/12/05 08:28:02;;;;;;;5.60;0.32;;;19.60;46.00;20.40;100414.00;;;;5014918;28;20041;-57
2023/12/05 08:30:28;;;;;;;2.67;0.10;;;19.60;46.00;20.40;100427.00;;;;5014304;28;20049;-46
2023/12/05 08:32:57;;;;;;;2.65;0.50;;;19.60;46.00;20.40;100425.00;;;;5014830;28;20060;-47
2023/12/05 08:35:24;;;;;;;1.17;0.30;;;19.60;46.00;20.40;100436.00;;;;5021092;28;20053;-48
2023/12/05 08:37:50;;;;;;;5.00;0.77;;;19.60;46.00;20.40;100447.00;;;;5015435;28;20030;-48
2023/12/05 08:40:17;;;;;;;0.85;0.20;;;19.60;46.00;20.40;100445.00;;;;5014230;28;20026;-48
2023/12/05 08:42:43;;;;;;;0.85;0.10;;;19.60;46.00;20.40;100439.00;;;;5014740;28;20423;-50
2023/12/05 08:45:11;;;;;;;7.68;0.40;;;19.60;46.00;20.40;100447.00;;;;5015573;28;20029;-50
2023/12/05 08:47:39;;;;;;;1.27;0.10;;;19.60;46.00;20.40;100455.00;;;;5015096;28;20029;-51
2023/12/05 08:50:06;;;;;;;0.57;0.13;;;19.60;46.00;20.40;100445.00;;;;5014209;28;20072;-47
2023/12/05 08:52:34;;;;;;;0.57;0.20;;;19.60;46.00;20.40;100459.00;;;;5004409;28;20576;-46
2023/12/05 08:55:03;;;;;;;1.15;0.10;;;19.60;46.10;20.40;100455.00;;;;4994265;28;20048;-46
2023/12/05 08:57:29;;;;;;;1.35;0.43;;;19.60;46.20;20.50;100460.00;;;;5014796;28;20061;-50
2023/12/05 08:59:55;;;;;;;4.03;0.22;;;19.60;46.20;20.50;100464.00;;;;5014999;28;20034;-50
2023/12/05 09:02:21;;;;;;;1.67;0.20;;;19.60;46.20;20.60;100470.00;;;;5030228;28;20038;-51
2023/12/05 09:04:47;;;;;;;3.30;0.20;;;19.70;46.20;20.60;100472.00;;;;5015912;28;20045;-52
2023/12/05 09:07:13;;;;;;;1.85;0.20;;;19.70;46.10;20.70;100470.00;;;;5015229;28;20041;-52
2023/12/05 09:09:42;;;;;;;0.82;0.10;;;19.80;46.10;20.80;100475.00;;;;5015006;28;20088;-51
2023/12/05 09:12:08;;;;;;;3.95;0.10;;;19.80;46.00;20.90;100477.00;;;;5013707;28;20448;-53
2023/12/05 09:14:35;;;;;;;1.65;0.10;;;19.90;45.90;21.00;100481.00;;;;5015537;28;20474;-53
2023/12/05 09:17:01;;;;;;;1.25;0.10;;;20.00;45.90;21.10;100482.00;;;;5014560;28;20033;-53
2023/12/05 09:19:27;;;;;;;0.40;0.10;;;20.10;45.80;21.20;100492.00;;;;5013788;28;20059;-52
2023/12/05 09:21:53;;;;;;;1.65;0.20;;;20.20;45.70;21.30;100483.00;;;;5014993;28;20498;-52
2023/12/05 09:24:19;;;;;;;0.73;0.10;;;20.20;45.60;21.40;100491.00;;;;4988906;28;20151;-50
2023/12/05 09:26:45;;;;;;;0.85;0.17;;;20.30;45.50;21.50;100493.00;;;;5014076;28;20061;-53
2023/12/05 09:29:11;;;;;;;11.90;0.55;;;20.40;45.40;21.60;100495.00;;;;5013228;28;20378;-51
2023/12/05 09:31:37;;;;;;;2.20;0.10;;;20.50;45.30;21.60;100492.00;;;;5013333;28;20030;-56
2023/12/05 09:34:03;;;;;;;2.67;0.20;;;20.50;45.20;21.60;100501.00;;;;5015411;28;20041;-51
2023/12/05 09:36:30;;;;;;;2.45;0.15;;;20.50;45.10;21.70;100501.00;;;;5012935;28;20052;-53
2023/12/05 09:38:59;;;;;;;6.97;0.10;;;20.70;45.00;21.70;100509.00;;;;5013606;28;20120;-51
2023/12/05 09:41:27;;;;;;;11.20;2.05;;;20.70;44.90;21.80;100508.00;;;;5014995;28;20042;-53
2023/12/05 09:43:54;;;;;;;4.03;0.52;;;20.70;44.80;21.80;100515.00;;;;5020558;28;20042;-52
2023/12/05 09:46:21;;;;;;;5.18;0.20;;;20.80;44.70;21.90;100524.00;;;;5021094;28;20045;-55
2023/12/05 09:48:50;;;;;;;7.75;0.50;;;20.80;44.60;21.90;100526.00;;;;5014611;28;20044;-54
2023/12/05 09:51:17;;;;;;;7.43;0.10;;;20.90;44.50;21.90;100540.00;;;;5015508;28;20033;-53
2023/12/05 09:53:45;;;;;;;10.05;0.43;;;20.90;44.50;22.00;100528.00;;;;5014933;28;20453;-50
2023/12/05 09:56:14;;;;;;;18.83;0.30;;;20.90;44.40;22.00;100528.00;;;;5014562;28;20034;-51
2023/12/05 09:58:46;;;;;;;11.80;0.32;;;21.00;44.30;22.00;100543.00;;;;5014674;28;20398;-52
2023/12/05 10:01:17;;;;;;;11.45;0.68;;;21.10;44.30;22.10;100541.00;;;;5014299;28;20128;-52
2023/12/05 10:03:55;;;;;;;10.38;1.77;;;21.10;44.20;22.10;100546.00;;;;5014456;28;20077;-53
2023/12/05 10:06:27;;;;;;;18.90;3.20;;;21.10;44.00;22.10;100552.00;;;;5014025;28;20030;-50
2023/12/05 10:08:56;;;;;;;12.98;0.20;;;21.10;44.60;22.10;100562.00;;;;5015224;28;20049;-53
2023/12/05 10:11:27;;;;;;;6.43;0.30;;;21.20;44.00;22.20;100566.00;;;;5029666;28;20041;-55
2023/12/05 10:13:53;;;;;;;14.73;0.45;;;21.20;43.90;22.20;100567.00;;;;5015239;28;20038;-54
2023/12/05 10:16:22;;;;;;;6.50;0.47;;;21.20;43.80;22.20;100570.00;;;;5015116;28;20474;-57
2023/12/05 10:18:48;;;;;;;7.80;0.20;;;21.30;43.80;22.20;100573.00;;;;5017767;28;20099;-57
2023/12/05 10:21:14;;;;;;;2.72;0.15;;;21.30;43.80;22.20;100582.00;;;;5018055;28;20494;-57
2023/12/05 10:23:40;;;;;;;4.65;0.30;;;21.30;43.70;22.20;100582.00;;;;5018488;28;20091;-53
2023/12/05 10:26:06;;;;;;;4.18;0.15;;;21.30;43.60;22.20;100580.00;;;;5007259;28;20060;-56
2023/12/05 10:28:35;;;;;;;3.78;0.10;;;21.30;43.60;22.20;100570.00;;;;5033415;28;20026;-54
2023/12/05 10:31:14;;;;;;;3.75;0.75;;;21.40;43.60;22.30;100581.00;;;;5016263;28;20118;-53
2023/12/05 10:33:40;;;;;;;4.13;1.23;;;21.40;43.50;22.30;100580.00;;;;5017179;28;20645;-55
2023/12/05 10:36:13;;;;;;;6.32;0.63;;;21.40;43.40;22.30;100583.00;;;;5017916;28;20041;-53
2023/12/05 10:38:43;;;;;;;3.50;0.10;;;21.40;43.40;22.30;100576.00;;;;5023172;28;20053;-55
2023/12/05 10:41:09;;;;;;;2.83;0.10;;;21.40;43.30;22.30;100583.00;;;;5017612;28;20052;-56
2023/12/05 10:43:35;;;;;;;0.52;0.10;;;21.40;43.20;22.30;100583.00;;;;5017044;28;20033;-56
2023/12/05 10:46:04;;;;;;;2.13;0.10;;;21.40;43.20;22.30;100583.00;;;;5017351;28;20072;-59
2023/12/05 10:48:31;;;;;;;2.50;0.10;;;21.50;43.20;22.30;100589.00;;;;5017086;28;20053;-55
2023/12/05 10:50:57;;;;;;;1.08;0.22;;;21.50;43.20;22.40;100592.00;;;;5006992;28;20045;-59